Time;durP1;ratioP1;P1;durP2;ratioP2;P2;SDS_P1;SDS_P2;PMS_P1;PMS_P2;Temp;Humidity;BMP_temperature;BMP_pressure;BME280_temperature;BME280_humidity;BME280_pressure;Samples;Min_cycle;Max_cycle;Signal;HPM_P1;HPM_P2
2022/03/01 00:01:38;;;;;;;0.45;0.38;;;25.70;78.20;;;;;;5085952;23;20508;-69
2022/03/01 00:04:00;;;;;;;1.05;0.30;;;25.70;78.10;;;;;;5086712;23;20092;-63
2022/03/01 00:06:22;;;;;;;1.35;0.50;;;25.70;78.20;;;;;;5091212;23;20782;-67
2022/03/01 00:08:45;;;;;;;2.15;0.68;;;25.70;78.10;;;;;;5088857;23;20020;-67
2022/03/01 00:11:08;;;;;;;1.00;0.50;;;25.70;78.10;;;;;;5082017;23;20237;-67
2022/03/01 00:13:30;;;;;;;1.02;0.57;;;25.80;78.20;;;;;;5089608;23;20116;-68
2022/03/01 00:15:53;;;;;;;0.57;0.47;;;25.80;78.10;;;;;;5089147;23;20409;-68
2022/03/01 00:18:15;;;;;;;2.53;0.40;;;25.80;78.10;;;;;;5082559;23;20017;-68
2022/03/01 00:20:38;;;;;;;0.70;0.30;;;25.80;78.00;;;;;;5088553;23;20013;-68
2022/03/01 00:23:00;;;;;;;0.52;0.40;;;25.80;78.00;;;;;;5089410;23;20326;-67
2022/03/01 00:25:22;;;;;;;1.58;0.50;;;25.90;78.00;;;;;;5075449;23;20024;-66
2022/03/01 00:27:45;;;;;;;2.10;0.50;;;25.90;77.90;;;;;;5086824;23;20668;-65
2022/03/01 00:30:08;;;;;;;0.40;0.32;;;25.90;77.90;;;;;;5092122;23;20101;-66
2022/03/01 00:32:30;;;;;;;0.77;0.40;;;25.90;77.90;;;;;;5075466;23;20021;-64
2022/03/01 00:34:53;;;;;;;0.75;0.40;;;25.90;77.90;;;;;;5085620;23;20352;-63
2022/03/01 00:37:15;;;;;;;2.88;0.68;;;25.90;77.90;;;;;;5091320;23;20463;-67
2022/03/01 00:39:38;;;;;;;1.58;0.57;;;26.00;77.80;;;;;;5085976;23;20507;-72
2022/03/01 00:42:00;;;;;;;1.02;0.47;;;26.00;77.80;;;;;;5076651;23;20193;-68
2022/03/01 00:44:23;;;;;;;1.23;0.68;;;26.00;77.70;;;;;;5093398;23;20044;-67
2022/03/01 00:46:46;;;;;;;1.20;0.50;;;26.00;77.60;;;;;;5084511;23;20600;-64
2022/03/01 00:49:08;;;;;;;2.80;0.55;;;26.10;77.60;;;;;;5082999;23;20036;-68
2022/03/01 00:51:31;;;;;;;0.82;0.50;;;26.10;77.50;;;;;;5090478;23;20719;-67
2022/03/01 00:53:53;;;;;;;1.60;0.47;;;26.10;77.40;;;;;;5086333;23;20102;-67
2022/03/01 00:56:16;;;;;;;1.77;0.50;;;26.10;77.40;;;;;;5084458;23;20460;-67
2022/03/01 00:58:39;;;;;;;0.55;0.50;;;26.10;77.30;;;;;;5089110;23;20091;-68
2022/03/01 01:01:01;;;;;;;1.35;0.70;;;26.20;77.30;;;;;;5087349;23;20052;-68
2022/03/01 01:03:24;;;;;;;1.77;0.70;;;26.20;77.20;;;;;;5085396;23;20028;-64
2022/03/01 01:05:46;;;;;;;1.02;0.52;;;26.20;77.20;;;;;;5089772;23;20020;-64
2022/03/01 01:08:09;;;;;;;1.50;0.50;;;26.20;77.10;;;;;;5088582;23;20067;-66
2022/03/01 01:10:32;;;;;;;1.23;0.38;;;26.20;77.10;;;;;;5085168;23;20024;-65
2022/03/01 01:12:55;;;;;;;1.50;0.50;;;26.30;77.00;;;;;;5089609;23;20009;-67
2022/03/01 01:15:18;;;;;;;2.05;0.65;;;26.30;77.10;;;;;;5087798;23;20052;-66
2022/03/01 01:17:40;;;;;;;;;;;26.30;76.90;;;;;;5085496;23;20017;-63
2022/03/01 01:20:05;;;;;;;2.03;0.57;;;26.30;76.80;;;;;;5086927;23;19914;-67
2022/03/01 01:22:40;;;;;;;1.60;0.57;;;26.30;76.80;;;;;;5085853;23;20308;-65
2022/03/01 01:25:04;;;;;;;0.70;0.43;;;26.30;76.90;;;;;;5089053;23;20009;-68
2022/03/01 01:27:27;;;;;;;1.60;0.65;;;26.30;76.80;;;;;;5074698;23;20025;-67
2022/03/01 01:29:49;;;;;;;1.80;0.43;;;26.30;76.80;;;;;;5084157;23;20107;-67
2022/03/01 01:32:12;;;;;;;0.35;0.22;;;26.30;76.70;;;;;;5088853;23;20997;-63
2022/03/01 01:34:34;;;;;;;2.08;0.73;;;26.40;76.90;;;;;;5082846;23;20013;-67
2022/03/01 01:36:57;;;;;;;1.15;0.40;;;26.40;76.90;;;;;;5081277;23;20019;-65
2022/03/01 01:39:19;;;;;;;1.65;0.38;;;26.40;76.80;;;;;;5088810;23;20506;-64
2022/03/01 01:41:42;;;;;;;1.77;0.60;;;26.40;76.80;;;;;;5087518;23;20730;-65
2022/03/01 01:44:08;;;;;;;1.50;0.73;;;26.40;76.70;;;;;;5083283;23;20017;-66
2022/03/01 01:46:30;;;;;;;1.33;0.93;;;26.40;76.70;;;;;;5090136;23;20819;-67
2022/03/01 01:48:53;;;;;;;1.60;0.68;;;26.40;76.60;;;;;;5087221;23;20021;-63
2022/03/01 01:51:15;;;;;;;2.33;0.60;;;26.40;76.70;;;;;;5085391;23;20017;-66
2022/03/01 01:53:39;;;;;;;1.75;0.60;;;26.50;76.70;;;;;;5088220;23;20837;-69
2022/03/01 01:56:01;;;;;;;1.65;0.68;;;26.50;76.60;;;;;;5086011;23;20013;-66
2022/03/01 01:58:24;;;;;;;3.60;0.73;;;26.50;76.50;;;;;;5085096;23;20059;-66
2022/03/01 02:00:46;;;;;;;3.03;0.60;;;26.50;76.50;;;;;;5084187;23;20595;-65
2022/03/01 02:03:09;;;;;;;1.02;0.43;;;26.50;76.50;;;;;;5089578;23;20302;-67
2022/03/01 02:05:31;;;;;;;1.00;0.73;;;26.50;76.40;;;;;;5083776;23;20036;-67
2022/03/01 02:07:54;;;;;;;2.35;0.50;;;26.60;76.40;;;;;;5086169;23;20020;-66
2022/03/01 02:10:17;;;;;;;1.25;0.70;;;26.60;76.40;;;;;;5086997;23;20643;-67
2022/03/01 02:12:40;;;;;;;0.80;0.47;;;26.60;76.30;;;;;;5083735;23;20013;-67
2022/03/01 02:15:03;;;;;;;2.15;0.77;;;26.60;76.20;;;;;;5082719;23;21125;-62
2022/03/01 02:17:27;;;;;;;2.85;0.80;;;26.60;76.10;;;;;;5091184;23;20020;-62
2022/03/01 02:19:51;;;;;;;3.60;1.15;;;26.60;76.00;;;;;;5081846;23;20109;-62
2022/03/01 02:22:14;;;;;;;5.70;1.52;;;26.60;75.00;;;;;;5086355;23;20023;-62
2022/03/01 02:24:36;;;;;;;4.82;1.38;;;26.50;74.70;;;;;;5090454;23;20048;-63
2022/03/01 02:27:01;;;;;;;4.38;1.50;;;26.50;74.70;;;;;;5082883;23;20429;-62
2022/03/01 02:29:25;;;;;;;5.22;1.50;;;26.50;74.70;;;;;;5088428;23;20017;-63
2022/03/01 02:31:47;;;;;;;3.42;1.33;;;26.50;74.70;;;;;;5090748;23;20023;-65
2022/03/01 02:34:10;;;;;;;5.90;1.65;;;26.50;74.80;;;;;;5084638;23;20044;-63
2022/03/01 02:36:32;;;;;;;4.25;1.23;;;26.50;74.80;;;;;;5081865;23;20864;-64
2022/03/01 02:38:55;;;;;;;5.32;1.55;;;26.50;74.80;;;;;;5091446;23;20512;-64
2022/03/01 02:41:17;;;;;;;3.95;1.13;;;26.50;74.80;;;;;;5084863;23;20021;-65
2022/03/01 02:43:39;;;;;;;3.53;1.23;;;26.50;74.80;;;;;;5085434;23;20013;-64
2022/03/01 02:46:02;;;;;;;4.82;0.73;;;26.50;74.80;;;;;;5089365;23;20032;-65
2022/03/01 02:48:24;;;;;;;9.82;1.30;;;26.50;74.90;;;;;;5084696;23;20028;-64
2022/03/01 02:50:47;;;;;;;5.10;1.38;;;26.40;74.90;;;;;;5083462;23;20779;-66
2022/03/01 02:53:09;;;;;;;4.10;1.20;;;26.50;75.00;;;;;;5090281;23;20389;-67
2022/03/01 02:55:32;;;;;;;4.22;1.50;;;26.40;74.70;;;;;;5085052;23;20146;-66
2022/03/01 02:57:54;;;;;;;4.55;1.58;;;26.40;74.90;;;;;;5085534;23;20013;-68
2022/03/01 03:00:16;;;;;;;3.00;0.90;;;26.40;75.00;;;;;;5080853;23;20449;-68
2022/03/01 03:02:39;;;;;;;5.07;1.65;;;26.40;75.60;;;;;;5057657;23;20061;-63
2022/03/01 03:05:02;;;;;;;4.68;1.38;;;26.40;75.00;;;;;;5084458;23;20032;-65
2022/03/01 03:07:24;;;;;;;3.10;1.27;;;26.40;75.00;;;;;;5087451;23;20377;-63
2022/03/01 03:09:47;;;;;;;6.88;1.65;;;26.40;75.00;;;;;;5089079;23;20075;-71
2022/03/01 03:12:09;;;;;;;6.88;1.42;;;26.40;75.10;;;;;;5075893;23;20017;-61
2022/03/01 03:14:32;;;;;;;2.88;1.10;;;26.40;75.00;;;;;;5089331;23;20020;-64
2022/03/01 03:16:54;;;;;;;3.15;1.10;;;26.40;75.70;;;;;;5087219;23;20534;-63
2022/03/01 03:19:17;;;;;;;3.13;0.93;;;26.40;75.10;;;;;;5085577;23;20017;-63
2022/03/01 03:21:39;;;;;;;4.88;1.00;;;26.40;75.10;;;;;;5076691;23;20044;-63
2022/03/01 03:24:02;;;;;;;5.45;1.45;;;26.40;75.10;;;;;;5080888;23;20012;-67
2022/03/01 03:26:24;;;;;;;3.55;1.25;;;26.40;75.00;;;;;;5085623;23;20036;-65
2022/03/01 03:28:47;;;;;;;4.70;1.13;;;26.50;75.10;;;;;;5084976;23;20551;-60
2022/03/01 03:31:09;;;;;;;4.15;1.15;;;26.40;75.00;;;;;;5091581;23;20040;-62
2022/03/01 03:33:31;;;;;;;2.17;0.95;;;26.40;75.10;;;;;;5086499;23;20024;-59
2022/03/01 03:35:54;;;;;;;5.32;1.40;;;26.50;75.20;;;;;;5085882;23;20029;-63
2022/03/01 03:38:17;;;;;;;2.63;1.13;;;26.50;75.10;;;;;;5091986;23;20024;-65
2022/03/01 03:40:40;;;;;;;4.75;1.17;;;26.50;75.10;;;;;;5082767;23;20071;-63
2022/03/01 03:43:02;;;;;;;4.00;1.20;;;26.50;75.80;;;;;;5083600;23;20047;-64
2022/03/01 03:45:25;;;;;;;6.88;1.17;;;26.50;75.20;;;;;;5090056;23;20040;-65
2022/03/01 03:47:48;;;;;;;8.82;1.55;;;26.50;75.30;;;;;;5081659;23;20079;-65
2022/03/01 03:50:11;;;;;;;4.73;1.17;;;26.60;75.50;;;;;;5073580;23;20555;-73
2022/03/01 03:52:34;;;;;;;3.95;1.02;;;26.60;75.60;;;;;;5056620;23;20595;-66
2022/03/01 03:54:56;;;;;;;2.92;1.00;;;26.60;75.60;;;;;;5084920;23;20028;-66
2022/03/01 03:57:19;;;;;;;4.35;1.10;;;26.60;75.70;;;;;;5050660;23;20105;-64
2022/03/01 03:59:41;;;;;;;5.93;1.33;;;26.60;75.70;;;;;;5084922;23;20368;-66
2022/03/01 04:02:05;;;;;;;3.15;1.17;;;26.60;75.80;;;;;;5087857;23;20423;-64
2022/03/01 04:04:27;;;;;;;4.45;1.23;;;26.60;75.90;;;;;;5084083;23;20028;-61
2022/03/01 04:06:49;;;;;;;4.38;1.23;;;26.60;76.10;;;;;;5087098;23;20021;-62
2022/03/01 04:09:12;;;;;;;4.03;0.77;;;26.60;76.10;;;;;;5087861;23;20100;-61
2022/03/01 04:11:35;;;;;;;5.28;1.10;;;26.60;76.60;;;;;;5081475;23;20017;-63
2022/03/01 04:13:57;;;;;;;5.13;1.35;;;26.60;76.10;;;;;;5086368;23;20522;-63
2022/03/01 04:16:20;;;;;;;3.80;1.25;;;26.70;76.20;;;;;;5090508;23;20021;-61
2022/03/01 04:18:43;;;;;;;5.72;1.35;;;26.70;76.20;;;;;;5084309;23;20087;-64
2022/03/01 04:21:06;;;;;;;2.38;1.02;;;26.70;76.10;;;;;;5084280;23;20017;-60
2022/03/01 04:23:28;;;;;;;4.53;1.20;;;26.70;76.10;;;;;;5090722;23;20600;-61
2022/03/01 04:25:51;;;;;;;10.45;1.00;;;26.70;76.10;;;;;;5082222;23;20025;-61
2022/03/01 04:28:13;;;;;;;3.10;1.15;;;26.70;76.00;;;;;;5075981;23;20035;-61
2022/03/01 04:30:36;;;;;;;3.25;1.00;;;26.70;76.00;;;;;;5088143;23;20783;-64
2022/03/01 04:32:59;;;;;;;2.92;0.93;;;26.70;76.00;;;;;;5084775;23;20013;-63
2022/03/01 04:35:21;;;;;;;5.45;1.23;;;26.80;76.00;;;;;;5083771;23;20013;-62
2022/03/01 04:37:44;;;;;;;4.78;1.58;;;26.80;76.00;;;;;;5087166;23;20100;-62
2022/03/01 04:40:08;;;;;;;5.35;1.15;;;26.80;76.10;;;;;;5084259;23;20025;-64
2022/03/01 04:42:31;;;;;;;4.13;1.48;;;26.80;76.10;;;;;;5074712;23;20373;-61
2022/03/01 04:44:54;;;;;;;5.00;1.40;;;26.80;76.10;;;;;;5091064;23;20755;-64
2022/03/01 04:47:16;;;;;;;6.25;1.50;;;26.80;76.40;;;;;;5084284;23;20074;-61
2022/03/01 04:49:38;;;;;;;3.85;1.10;;;26.80;76.00;;;;;;5082652;23;20339;-60
2022/03/01 04:52:01;;;;;;;3.65;1.02;;;26.80;76.10;;;;;;5086176;23;20009;-62
2022/03/01 04:54:24;;;;;;;4.90;1.20;;;26.90;76.20;;;;;;5085851;23;20020;-64
2022/03/01 04:56:46;;;;;;;6.38;1.60;;;26.90;76.10;;;;;;5082816;23;20080;-68
2022/03/01 04:59:09;;;;;;;6.10;1.50;;;26.90;76.10;;;;;;5087264;23;20023;-61
2022/03/01 05:01:32;;;;;;;3.97;1.40;;;26.90;76.00;;;;;;5086001;23;20338;-66
2022/03/01 05:03:54;;;;;;;3.28;1.30;;;26.90;76.00;;;;;;5084756;23;20133;-61
2022/03/01 05:06:16;;;;;;;5.65;1.45;;;26.90;76.10;;;;;;5086452;23;20021;-61
2022/03/01 05:08:39;;;;;;;2.70;1.38;;;26.90;76.00;;;;;;5086838;23;20092;-65
2022/03/01 05:11:02;;;;;;;4.90;1.50;;;26.90;75.80;;;;;;5084953;23;20028;-65
2022/03/01 05:13:25;;;;;;;5.07;1.67;;;27.00;75.90;;;;;;5087559;23;20120;-63
2022/03/01 05:15:48;;;;;;;5.70;1.47;;;27.00;75.90;;;;;;5088347;23;20441;-65
2022/03/01 05:18:10;;;;;;;3.22;1.10;;;27.00;75.80;;;;;;5084808;23;20261;-61
2022/03/01 05:20:32;;;;;;;3.75;0.85;;;27.00;75.80;;;;;;5086463;23;20747;-61
2022/03/01 05:22:56;;;;;;;4.65;1.10;;;27.00;75.70;;;;;;5090381;23;20020;-62
2022/03/01 05:25:20;;;;;;;3.15;1.08;;;27.00;75.70;;;;;;5085088;23;20359;-64
2022/03/01 05:27:45;;;;;;;3.60;1.02;;;27.00;75.70;;;;;;5082918;23;20740;-61
2022/03/01 05:30:10;;;;;;;3.03;1.30;;;27.00;75.70;;;;;;5078131;23;20017;-65
2022/03/01 05:32:50;;;;;;;5.15;1.10;;;27.10;75.70;;;;;;5084197;23;20100;-63
2022/03/01 05:35:15;;;;;;;4.40;1.38;;;27.10;75.70;;;;;;5053347;23;20112;-60
2022/03/01 05:37:39;;;;;;;2.67;1.02;;;27.10;75.70;;;;;;5076725;23;20023;-63
2022/03/01 05:40:01;;;;;;;2.72;1.20;;;27.10;75.60;;;;;;5088861;23;20013;-66
2022/03/01 05:42:24;;;;;;;2.65;1.27;;;27.20;75.60;;;;;;5082785;23;20052;-64
2022/03/01 05:44:46;;;;;;;2.80;1.13;;;27.20;75.50;;;;;;5086140;23;20584;-64
2022/03/01 05:47:09;;;;;;;4.32;1.10;;;27.20;75.40;;;;;;5089159;23;20036;-64
2022/03/01 05:49:31;;;;;;;2.67;0.90;;;27.30;75.30;;;;;;5072808;23;20039;-64
2022/03/01 05:51:54;;;;;;;2.60;1.08;;;27.30;75.30;;;;;;5084122;23;20113;-62
2022/03/01 05:54:16;;;;;;;2.85;1.08;;;27.40;75.30;;;;;;5086231;23;20115;-61
2022/03/01 05:56:38;;;;;;;3.40;1.10;;;27.40;75.20;;;;;;5055169;23;20842;-63
2022/03/01 05:59:01;;;;;;;2.88;0.95;;;27.40;75.10;;;;;;5084743;23;20044;-61
2022/03/01 06:01:23;;;;;;;4.82;1.40;;;27.50;75.20;;;;;;5085368;23;20460;-65
2022/03/01 06:03:46;;;;;;;2.00;0.80;;;27.40;75.20;;;;;;5083841;23;20720;-64
2022/03/01 06:06:08;;;;;;;3.15;1.10;;;27.50;75.20;;;;;;5081799;23;20109;-64
2022/03/01 06:08:31;;;;;;;4.30;0.90;;;27.50;75.10;;;;;;5091579;23;20021;-62
2022/03/01 06:10:53;;;;;;;3.03;1.20;;;27.50;75.10;;;;;;5087576;23;20013;-64
2022/03/01 06:13:16;;;;;;;3.90;1.38;;;27.60;75.00;;;;;;5084513;23;20012;-61
2022/03/01 06:15:38;;;;;;;3.13;1.10;;;27.60;74.80;;;;;;5089710;23;20602;-62
2022/03/01 06:18:01;;;;;;;3.40;1.23;;;27.60;74.80;;;;;;5086127;23;20111;-60
2022/03/01 06:20:24;;;;;;;3.55;1.30;;;27.60;74.70;;;;;;5084257;23;20020;-61
2022/03/01 06:22:47;;;;;;;8.57;1.30;;;27.60;74.60;;;;;;5088703;23;20013;-62
2022/03/01 06:25:11;;;;;;;3.17;1.15;;;27.60;74.60;;;;;;5089143;23;20100;-62
2022/03/01 06:27:35;;;;;;;3.65;1.25;;;27.60;74.60;;;;;;5085331;23;20592;-60
2022/03/01 06:29:58;;;;;;;2.05;0.90;;;27.60;74.50;;;;;;5088548;23;20009;-64
2022/03/01 06:32:21;;;;;;;1.92;1.08;;;27.60;74.50;;;;;;5083772;23;20024;-62
2022/03/01 06:34:44;;;;;;;4.15;1.27;;;27.60;74.50;;;;;;5074766;23;20017;-63
2022/03/01 06:37:12;;;;;;;4.80;1.40;;;27.60;74.50;;;;;;5078542;23;20115;-63
2022/03/01 06:39:34;;;;;;;4.35;1.30;;;27.60;74.40;;;;;;5085386;23;20044;-64
2022/03/01 06:41:57;;;;;;;3.75;1.50;;;27.60;74.30;;;;;;5084457;23;20040;-62
2022/03/01 06:44:19;;;;;;;3.10;1.42;;;27.60;74.20;;;;;;5089837;23;20009;-61
2022/03/01 06:46:42;;;;;;;3.20;1.33;;;27.60;74.20;;;;;;5083769;23;20020;-60
2022/03/01 06:49:04;;;;;;;4.75;1.52;;;27.60;74.20;;;;;;5080661;23;20863;-62
2022/03/01 06:51:27;;;;;;;4.03;1.55;;;27.60;74.10;;;;;;5089441;23;20613;-63
2022/03/01 06:53:49;;;;;;;4.88;1.15;;;27.60;74.10;;;;;;5087428;23;20326;-62
2022/03/01 06:56:11;;;;;;;6.28;1.90;;;27.60;73.70;;;;;;5084245;23;20091;-62
2022/03/01 06:58:34;;;;;;;6.53;1.80;;;27.50;72.70;;;;;;5087575;23;20017;-62
2022/03/01 07:00:57;;;;;;;6.63;1.85;;;27.50;72.50;;;;;;5086831;23;20021;-62
2022/03/01 07:03:19;;;;;;;4.47;1.58;;;27.40;72.40;;;;;;5085199;23;20016;-61
2022/03/01 07:05:42;;;;;;;4.18;1.80;;;27.40;72.50;;;;;;5085826;23;20422;-61
2022/03/01 07:08:04;;;;;;;4.88;1.77;;;27.40;72.50;;;;;;5090448;23;20017;-61
2022/03/01 07:10:27;;;;;;;4.65;1.73;;;27.30;72.60;;;;;;5085345;23;20048;-62
2022/03/01 07:12:50;;;;;;;3.90;1.50;;;27.30;72.70;;;;;;5087418;23;20009;-63
2022/03/01 07:15:14;;;;;;;6.32;1.83;;;27.30;72.80;;;;;;5089585;23;20028;-62
2022/03/01 07:17:36;;;;;;;7.38;1.80;;;27.20;72.80;;;;;;5056854;23;20052;-63
2022/03/01 07:19:59;;;;;;;4.03;1.90;;;27.20;72.80;;;;;;5087031;23;20017;-62
2022/03/01 07:22:21;;;;;;;5.68;1.52;;;27.10;72.80;;;;;;5091513;23;20040;-62
2022/03/01 07:24:44;;;;;;;6.50;1.67;;;27.10;72.80;;;;;;5086419;23;20020;-61
2022/03/01 07:27:06;;;;;;;7.63;1.92;;;27.10;72.80;;;;;;5073931;23;20536;-62
2022/03/01 07:29:30;;;;;;;5.18;1.63;;;27.00;72.90;;;;;;5088895;23;20024;-62
2022/03/01 07:31:53;;;;;;;3.25;1.42;;;27.00;73.00;;;;;;5073697;23;20087;-62
2022/03/01 07:34:15;;;;;;;6.07;1.50;;;27.00;73.10;;;;;;5084241;23;20035;-62
2022/03/01 07:36:38;;;;;;;5.95;1.60;;;27.00;73.30;;;;;;5090706;23;20388;-62
2022/03/01 07:39:00;;;;;;;5.40;1.77;;;26.90;73.20;;;;;;5084626;23;20017;-62
2022/03/01 07:41:22;;;;;;;5.68;1.65;;;26.90;73.20;;;;;;5084121;23;20075;-61
2022/03/01 07:43:45;;;;;;;4.47;1.63;;;26.90;73.20;;;;;;5091740;23;20730;-62
2022/03/01 07:46:11;;;;;;;8.50;1.80;;;26.80;73.20;;;;;;5054444;23;20470;-62
2022/03/01 07:48:34;;;;;;;5.75;1.67;;;26.80;73.10;;;;;;5085106;23;20017;-62
2022/03/01 07:50:57;;;;;;;4.97;2.00;;;26.80;73.20;;;;;;5091307;23;20024;-62
2022/03/01 07:53:19;;;;;;;5.85;2.25;;;26.80;73.30;;;;;;5086045;23;20518;-62
2022/03/01 07:55:41;;;;;;;5.32;1.52;;;26.70;73.30;;;;;;5085762;23;20109;-62
2022/03/01 07:58:04;;;;;;;4.68;1.80;;;26.70;73.40;;;;;;5087825;23;20667;-62
2022/03/01 08:00:27;;;;;;;6.63;2.33;;;26.70;73.50;;;;;;5086305;23;20099;-63
2022/03/01 08:02:49;;;;;;;5.00;1.98;;;26.60;73.50;;;;;;5085394;23;20023;-63
2022/03/01 08:05:12;;;;;;;6.97;2.22;;;26.60;73.60;;;;;;5085208;23;20021;-62
2022/03/01 08:07:35;;;;;;;7.22;2.00;;;26.60;73.60;;;;;;5084861;23;20092;-62
2022/03/01 08:09:57;;;;;;;5.15;1.80;;;26.60;73.70;;;;;;5081057;23;20045;-62
2022/03/01 08:12:19;;;;;;;4.78;1.77;;;26.50;73.70;;;;;;5086997;23;20867;-62
2022/03/01 08:14:42;;;;;;;5.05;2.00;;;26.50;73.70;;;;;;5087067;23;20024;-63
2022/03/01 08:17:05;;;;;;;5.78;1.98;;;26.50;73.80;;;;;;5082371;23;20095;-61
2022/03/01 08:19:27;;;;;;;6.57;2.30;;;26.50;74.10;;;;;;5075094;23;21041;-62
2022/03/01 08:21:50;;;;;;;4.32;1.75;;;26.50;74.00;;;;;;5084958;23;20063;-62
2022/03/01 08:24:12;;;;;;;7.65;2.20;;;26.50;74.00;;;;;;5083011;23;20017;-61
2022/03/01 08:26:35;;;;;;;5.50;2.17;;;26.40;74.00;;;;;;5083685;23;20025;-62
2022/03/01 08:28:57;;;;;;;4.00;1.50;;;26.40;74.10;;;;;;5088895;23;20108;-61
2022/03/01 08:31:20;;;;;;;5.55;1.77;;;26.40;74.20;;;;;;5082019;23;20021;-61
2022/03/01 08:33:43;;;;;;;4.72;1.60;;;26.40;74.30;;;;;;5081320;23;20182;-60
2022/03/01 08:36:07;;;;;;;4.45;1.73;;;26.30;74.40;;;;;;5088002;23;20020;-61
2022/03/01 08:38:30;;;;;;;6.47;2.42;;;26.30;74.40;;;;;;5049822;23;20025;-61
2022/03/01 08:40:53;;;;;;;5.72;2.38;;;26.30;74.50;;;;;;5084310;23;20012;-61
2022/03/01 08:43:16;;;;;;;4.97;2.17;;;26.30;74.50;;;;;;5090315;23;20031;-61
2022/03/01 08:45:40;;;;;;;5.65;1.90;;;26.20;74.50;;;;;;5083962;23;20031;-61
2022/03/01 08:48:03;;;;;;;4.75;2.03;;;26.20;74.50;;;;;;5084462;23;20039;-61
2022/03/01 08:50:26;;;;;;;3.90;1.70;;;26.20;74.60;;;;;;5088830;23;20027;-61
2022/03/01 08:52:50;;;;;;;5.93;1.88;;;26.20;74.60;;;;;;5084025;23;20024;-61
2022/03/01 08:55:12;;;;;;;3.45;1.40;;;26.10;74.50;;;;;;5085891;23;20020;-61
2022/03/01 08:57:35;;;;;;;4.82;1.58;;;26.10;74.60;;;;;;5089213;23;20433;-62
2022/03/01 08:59:58;;;;;;;3.90;1.53;;;26.10;74.70;;;;;;5082899;23;20044;-62
2022/03/01 09:02:20;;;;;;;5.63;2.00;;;26.10;74.70;;;;;;5084094;23;20013;-61
2022/03/01 09:04:43;;;;;;;5.30;2.08;;;26.10;74.70;;;;;;5088783;23;20028;-60
2022/03/01 09:07:05;;;;;;;6.07;2.00;;;26.10;74.90;;;;;;5079661;23;20056;-61
2022/03/01 09:09:28;;;;;;;5.43;2.00;;;26.10;74.80;;;;;;5081158;23;20020;-61
2022/03/01 09:11:50;;;;;;;4.60;1.98;;;26.00;74.80;;;;;;5088420;23;20013;-60
2022/03/01 09:14:13;;;;;;;4.88;1.65;;;26.00;75.00;;;;;;5083385;23;20023;-60
2022/03/01 09:16:35;;;;;;;4.53;1.75;;;26.00;75.00;;;;;;5084818;23;20096;-61
2022/03/01 09:18:57;;;;;;;4.28;1.58;;;26.00;75.00;;;;;;5089682;23;20020;-61
2022/03/01 09:21:20;;;;;;;5.47;2.00;;;26.00;75.00;;;;;;5080279;23;20079;-60
2022/03/01 09:23:43;;;;;;;3.78;1.77;;;26.00;75.00;;;;;;5083464;23;20090;-60
2022/03/01 09:26:05;;;;;;;4.85;1.88;;;25.90;75.00;;;;;;5076193;23;20025;-61
2022/03/01 09:28:28;;;;;;;5.82;1.85;;;25.90;75.10;;;;;;5082326;23;20635;-61
2022/03/01 09:30:51;;;;;;;4.57;1.67;;;25.90;75.10;;;;;;5072415;23;20029;-61
2022/03/01 09:33:14;;;;;;;6.97;1.90;;;25.90;75.10;;;;;;5087387;23;20017;-61
2022/03/01 09:35:36;;;;;;;5.40;1.40;;;25.90;75.10;;;;;;5083952;23;20087;-62
2022/03/01 09:37:59;;;;;;;5.07;1.45;;;25.80;75.00;;;;;;5082433;23;20048;-61
2022/03/01 09:40:22;;;;;;;4.75;1.52;;;25.80;75.10;;;;;;5085340;23;20604;-61
2022/03/01 09:42:45;;;;;;;3.80;1.52;;;25.80;75.10;;;;;;5073038;23;20057;-61
2022/03/01 09:45:09;;;;;;;4.15;1.60;;;25.80;75.10;;;;;;5082850;23;20778;-61
2022/03/01 09:47:32;;;;;;;5.00;2.05;;;25.80;75.70;;;;;;5086676;23;20128;-61
2022/03/01 09:49:54;;;;;;;5.20;1.73;;;25.80;75.10;;;;;;5084292;23;20572;-62
2022/03/01 09:52:18;;;;;;;6.20;2.38;;;25.70;75.00;;;;;;5082181;23;20031;-60
2022/03/01 09:54:40;;;;;;;;;;;25.70;75.10;;;;;;5085386;23;20814;-61
2022/03/01 09:57:03;;;;;;;4.25;1.85;;;25.70;75.40;;;;;;5083324;23;19908;-62
2022/03/01 09:59:26;;;;;;;4.88;1.50;;;25.70;75.10;;;;;;5072356;23;20017;-62
2022/03/01 10:01:50;;;;;;;4.05;1.50;;;25.70;75.20;;;;;;5081906;23;20039;-61
2022/03/01 10:04:13;;;;;;;4.47;1.60;;;25.70;75.20;;;;;;5084475;23;20093;-61
2022/03/01 10:06:45;;;;;;;3.53;1.67;;;25.70;75.20;;;;;;5078446;23;20133;-61
2022/03/01 10:09:14;;;;;;;5.55;1.80;;;25.70;75.30;;;;;;5087953;23;20774;-60
2022/03/01 10:11:37;;;;;;;5.35;1.80;;;25.60;74.90;;;;;;5071464;23;20052;-61
2022/03/01 10:13:59;;;;;;;5.78;1.70;;;25.60;75.30;;;;;;5087347;23;20108;-61
2022/03/01 10:16:22;;;;;;;3.53;1.40;;;25.60;75.30;;;;;;5082659;23;20086;-61
2022/03/01 10:18:52;;;;;;;5.82;1.88;;;25.60;75.40;;;;;;5082723;23;20024;-61
2022/03/01 10:21:15;;;;;;;5.07;1.83;;;25.60;75.40;;;;;;5088534;23;20752;-62
2022/03/01 10:23:58;;;;;;;5.93;1.90;;;25.60;75.40;;;;;;5086057;23;20017;-61
2022/03/01 10:26:32;;;;;;;5.97;1.92;;;25.60;75.50;;;;;;5076789;23;20035;-62
2022/03/01 10:28:56;;;;;;;4.50;1.60;;;25.50;75.50;;;;;;5092037;23;20811;-61
2022/03/01 10:31:27;;;;;;;4.90;1.70;;;25.50;75.50;;;;;;5085271;23;20455;-60
2022/03/01 10:34:02;;;;;;;3.75;1.55;;;25.50;75.50;;;;;;5091135;23;20017;-61
2022/03/01 10:36:38;;;;;;;5.32;1.90;;;25.50;75.50;;;;;;5084449;23;20021;-61
2022/03/01 10:39:02;;;;;;;5.18;2.00;;;25.50;75.50;;;;;;5085337;23;20023;-61
2022/03/01 10:41:30;;;;;;;3.38;1.30;;;25.50;75.50;;;;;;5086810;23;20052;-61
2022/03/01 10:43:57;;;;;;;5.45;1.90;;;25.40;75.50;;;;;;5086256;23;20037;-61
2022/03/01 10:46:19;;;;;;;5.00;1.80;;;25.40;75.40;;;;;;5082360;23;20032;-61
2022/03/01 10:48:41;;;;;;;7.10;2.35;;;25.50;75.50;;;;;;5091646;23;20036;-61
2022/03/01 10:51:08;;;;;;;5.38;1.80;;;25.40;75.50;;;;;;5085092;23;20488;-61
2022/03/01 10:53:36;;;;;;;4.85;1.67;;;25.40;76.10;;;;;;5088502;23;20803;-60
2022/03/01 10:56:12;;;;;;;3.85;1.70;;;25.40;75.50;;;;;;5087346;23;20100;-61
2022/03/01 10:58:36;;;;;;;5.10;1.52;;;25.40;75.50;;;;;;5092633;23;20039;-61
2022/03/01 11:00:58;;;;;;;;;;;25.40;75.50;;;;;;5087255;23;20727;-61
2022/03/01 11:03:20;;;;;;;4.55;1.83;;;25.40;75.90;;;;;;5086772;23;19907;-61
2022/03/01 11:05:44;;;;;;;3.50;1.75;;;25.40;75.50;;;;;;5089567;23;20024;-60
2022/03/01 11:08:09;;;;;;;3.28;1.73;;;25.40;75.50;;;;;;5086761;23;20115;-61
2022/03/01 11:10:33;;;;;;;5.45;1.40;;;25.30;75.50;;;;;;5086044;23;21078;-60
2022/03/01 11:12:57;;;;;;;5.97;2.00;;;25.30;75.50;;;;;;5092181;23;20016;-61
2022/03/01 11:15:53;;;;;;;4.15;1.50;;;25.30;75.50;;;;;;5087049;23;20120;-60
2022/03/01 11:18:30;;;;;;;6.15;1.85;;;25.30;75.60;;;;;;5087335;23;20897;-61
2022/03/01 11:20:54;;;;;;;3.92;1.35;;;25.30;75.60;;;;;;5086640;23;20028;-61
2022/03/01 11:23:22;;;;;;;4.43;1.85;;;25.30;75.50;;;;;;5089857;23;20293;-61
2022/03/01 11:25:46;;;;;;;4.90;1.50;;;25.20;75.50;;;;;;5076292;23;20534;-61
2022/03/01 11:28:10;;;;;;;5.30;2.03;;;25.30;75.60;;;;;;5085466;23;20238;-61
2022/03/01 11:30:37;;;;;;;3.63;1.38;;;25.20;75.60;;;;;;5092978;23;20116;-61
2022/03/01 11:33:00;;;;;;;4.03;1.67;;;25.20;75.60;;;;;;5086586;23;20047;-61
2022/03/01 11:35:31;;;;;;;4.57;1.90;;;25.20;75.70;;;;;;5089882;23;20201;-61
2022/03/01 11:38:06;;;;;;;5.45;1.50;;;25.20;75.70;;;;;;5086581;23;20024;-61
2022/03/01 11:40:32;;;;;;;3.95;1.58;;;25.20;75.70;;;;;;5088784;23;20574;-60
2022/03/01 11:43:05;;;;;;;4.75;1.23;;;25.20;76.20;;;;;;5083539;23;20017;-58
2022/03/01 11:45:34;;;;;;;4.47;1.60;;;25.10;75.70;;;;;;5090708;23;20021;-61
2022/03/01 11:48:04;;;;;;;2.15;1.17;;;25.20;75.80;;;;;;5086272;23;20021;-60
2022/03/01 11:50:33;;;;;;;2.88;1.20;;;25.10;75.70;;;;;;5089481;23;20095;-61
2022/03/01 11:53:04;;;;;;;5.28;1.80;;;25.10;75.70;;;;;;5085874;23;20017;-60
2022/03/01 11:55:42;;;;;;;3.03;1.38;;;25.10;75.80;;;;;;5086201;23;20139;-61
2022/03/01 11:58:05;;;;;;;5.10;1.80;;;25.10;75.90;;;;;;5091842;23;20016;-60
2022/03/01 12:00:29;;;;;;;4.13;1.55;;;25.10;75.90;;;;;;5086118;23;20028;-60
2022/03/01 12:02:52;;;;;;;4.20;1.52;;;25.10;75.80;;;;;;5083943;23;20047;-60
2022/03/01 12:05:23;;;;;;;8.40;1.80;;;25.10;75.90;;;;;;5089058;23;20017;-61
2022/03/01 12:07:46;;;;;;;5.20;1.40;;;25.10;75.90;;;;;;5086113;23;20463;-60
2022/03/01 12:10:20;;;;;;;3.03;1.37;;;25.10;75.90;;;;;;5091284;23;20322;-61
2022/03/01 12:12:47;;;;;;;5.03;1.50;;;25.00;75.90;;;;;;5085630;23;20257;-60
2022/03/01 12:15:12;;;;;;;4.68;1.77;;;25.00;75.90;;;;;;5090902;23;20027;-61
2022/03/01 12:18:12;;;;;;;4.75;1.42;;;25.00;76.00;;;;;;5086169;23;20683;-60
2022/03/01 12:20:34;;;;;;;5.88;1.95;;;25.00;76.10;;;;;;5086064;23;20025;-70
2022/03/01 12:23:04;;;;;;;5.47;1.67;;;25.10;75.80;;;;;;5088603;23;20095;-76
2022/03/01 12:25:28;;;;;;;5.03;1.35;;;25.00;75.60;;;;;;5086319;23;20016;-70
2022/03/01 12:27:50;;;;;;;;;;;25.00;75.80;;;;;;5089167;23;20032;-69
2022/03/01 12:30:13;;;;;;;4.10;1.50;;;25.00;75.90;;;;;;5084527;23;19907;-69